createdAt,value
2017-08-05T00:00:55.795Z,95853
2017-08-05T00:06:29.713Z,95859
2017-08-05T00:11:57.894Z,95865
2017-08-05T00:17:26.849Z,95858
2017-08-05T00:22:54.995Z,95867
2017-08-05T00:28:23.148Z,95870
2017-08-05T00:33:51.312Z,95858
2017-08-05T00:39:25.197Z,95864
2017-08-05T00:44:53.342Z,95861
2017-08-05T00:50:21.529Z,95863
2017-08-05T00:55:49.727Z,95859
2017-08-05T01:01:18.672Z,95870
2017-08-05T01:06:46.880Z,95856
2017-08-05T01:12:15.068Z,95861
2017-08-05T01:17:43.552Z,95856
2017-08-05T01:23:11.694Z,95861
2017-08-05T01:28:39.865Z,95852
2017-08-05T01:34:08.007Z,95849
2017-08-05T01:39:36.188Z,95853
2017-08-05T01:45:04.367Z,95852
2017-08-05T01:50:32.525Z,95844
2017-08-05T01:56:00.708Z,95843
2017-08-05T02:01:28.877Z,95843
2017-08-05T02:06:57.036Z,95845
2017-08-05T02:12:25.223Z,95847
2017-08-05T02:17:53.403Z,95847
2017-08-05T02:23:21.569Z,95832
2017-08-05T02:28:50.489Z,95836
2017-08-05T02:34:18.682Z,95838
2017-08-05T02:39:46.874Z,95842
2017-08-05T02:45:15.048Z,95837
2017-08-05T02:50:43.950Z,95840
2017-08-05T02:56:12.185Z,95837
2017-08-05T03:01:40.339Z,95840
2017-08-05T03:07:08.524Z,95831
2017-08-05T03:12:38.669Z,95829
2017-08-05T03:18:07.592Z,95832
2017-08-05T03:23:35.760Z,95828
2017-08-05T03:29:03.924Z,95828
2017-08-05T03:34:32.075Z,95824
2017-08-05T03:40:00.233Z,95828
2017-08-05T03:45:28.412Z,95825
2017-08-05T03:50:59.635Z,95821
2017-08-05T03:56:27.778Z,95814
2017-08-05T04:01:55.936Z,95814
2017-08-05T04:07:34.697Z,95813
2017-08-05T04:13:02.847Z,95813
2017-08-05T04:18:31.002Z,95805
2017-08-05T04:23:59.149Z,95809
2017-08-05T04:29:27.330Z,95806
2017-08-05T04:34:57.184Z,95805
2017-08-05T04:40:25.323Z,95798
2017-08-05T04:45:53.501Z,95811
2017-08-05T04:51:21.675Z,95807
2017-08-05T04:56:49.856Z,95806
2017-08-05T05:02:18.897Z,95813
2017-08-05T05:07:47.062Z,95813
2017-08-05T05:13:15.261Z,95816
2017-08-05T05:18:43.413Z,95813
2017-08-05T05:24:12.345Z,95817
2017-08-05T05:29:40.492Z,95804
2017-08-05T05:35:09.175Z,95814
2017-08-05T05:40:37.470Z,95806
2017-08-05T05:46:06.416Z,95807
2017-08-05T05:51:34.612Z,95809
2017-08-05T05:57:03.578Z,95817
2017-08-05T06:02:32.517Z,95811
2017-08-05T06:08:00.678Z,95812
2017-08-05T06:13:28.847Z,95801
2017-08-05T06:18:56.996Z,95798
2017-08-05T06:24:25.140Z,95800
2017-08-05T06:29:53.309Z,95801
2017-08-05T06:35:21.482Z,95808
2017-08-05T06:40:50.425Z,95804
2017-08-05T06:46:18.628Z,95807
2017-08-05T06:51:46.801Z,95804
2017-08-05T06:57:15.716Z,95802
2017-08-05T07:02:43.876Z,95792
2017-08-05T07:08:12.247Z,95793
2017-08-05T07:13:40.392Z,95791
2017-08-05T07:19:10.459Z,95780
2017-08-05T07:24:38.697Z,95779
2017-08-05T07:30:06.848Z,95776
2017-08-05T07:35:35.830Z,95785
2017-08-05T07:41:05.049Z,95778
2017-08-05T07:46:33.226Z,95787
2017-08-05T07:52:02.909Z,95784
2017-08-05T07:57:31.064Z,95779
2017-08-05T08:03:00.135Z,95780
2017-08-05T08:08:28.404Z,95778
2017-08-05T08:14:01.034Z,95777
2017-08-05T08:19:29.303Z,95770
2017-08-05T08:24:58.554Z,95771
2017-08-05T08:30:26.934Z,95776
2017-08-05T08:35:55.323Z,95775
2017-08-05T08:41:23.579Z,95775
2017-08-05T08:46:51.782Z,95785
2017-08-05T08:52:19.958Z,95785
2017-08-05T08:57:48.146Z,95780
2017-08-05T09:03:17.303Z,95774
2017-08-05T09:08:47.999Z,95764
2017-08-05T09:14:17.020Z,95762
2017-08-05T09:19:46.170Z,95759
2017-08-05T09:25:14.428Z,95749
2017-08-05T09:30:42.677Z,95740
2017-08-05T09:36:10.839Z,95733
2017-08-05T09:41:38.994Z,95734
2017-08-05T09:47:07.264Z,95724
2017-08-05T09:52:36.209Z,95724
2017-08-05T09:58:04.393Z,95723
2017-08-05T10:03:33.478Z,95731
2017-08-05T10:09:02.377Z,95727
2017-08-05T10:14:30.546Z,95727
2017-08-05T10:19:58.725Z,95729
2017-08-05T10:25:29.850Z,95730
2017-08-05T10:30:58.043Z,95731
2017-08-05T10:36:26.284Z,95717
2017-08-05T10:41:54.456Z,95698
2017-08-05T10:47:22.883Z,95698
2017-08-05T10:52:52.012Z,95694
2017-08-05T10:58:21.503Z,95687
2017-08-05T11:03:49.697Z,95684
2017-08-05T11:09:21.102Z,95687
2017-08-05T11:14:49.785Z,95679
2017-08-05T11:20:18.719Z,95679
2017-08-05T11:25:46.929Z,95683
2017-08-05T11:31:15.103Z,95673
2017-08-05T11:36:43.257Z,95669
2017-08-05T11:42:12.369Z,95681
2017-08-05T11:47:40.526Z,95672
2017-08-05T11:53:09.502Z,95671
2017-08-05T11:58:37.656Z,95672
2017-08-05T12:04:13.465Z,95671
2017-08-05T12:09:41.657Z,95663
2017-08-05T12:15:11.071Z,95659
2017-08-05T12:20:40.068Z,95658
2017-08-05T12:26:08.693Z,95651
2017-08-05T12:31:36.868Z,95653
2017-08-05T12:37:05.023Z,95659
2017-08-05T12:42:33.953Z,95662
2017-08-05T12:48:02.107Z,95662
2017-08-05T12:53:31.715Z,95657
2017-08-05T12:59:00.786Z,95650
2017-08-05T13:04:28.967Z,95650
2017-08-05T13:09:57.177Z,95653
2017-08-05T13:15:25.361Z,95652
2017-08-05T13:20:54.163Z,95656
2017-08-05T13:26:22.877Z,95650
2017-08-05T13:31:51.056Z,95655
2017-08-05T13:37:19.363Z,95655
2017-08-05T13:42:49.505Z,95652
2017-08-05T13:48:18.849Z,95650
2017-08-05T13:53:49.525Z,95644
2017-08-05T13:59:17.841Z,95650
2017-08-05T14:04:46.447Z,95642
2017-08-05T14:10:15.218Z,95660
2017-08-05T14:15:44.340Z,95655
2017-08-05T14:21:12.530Z,95657
2017-08-05T14:26:54.368Z,95664
2017-08-05T14:32:26.811Z,95676
2017-08-05T14:37:56.736Z,95666
2017-08-05T14:43:25.689Z,95665
2017-08-05T14:48:55.023Z,95662
2017-08-05T14:54:25.870Z,95637
2017-08-05T14:59:54.073Z,95622
2017-08-05T15:05:22.250Z,95653
2017-08-05T15:10:54.234Z,95645
2017-08-05T15:16:22.466Z,95627
2017-08-05T15:21:52.768Z,95630
2017-08-05T15:27:21.727Z,95628
2017-08-05T15:32:49.919Z,95636
2017-08-05T15:38:20.104Z,95623
2017-08-05T15:43:49.077Z,95621
2017-08-05T15:49:17.296Z,95632
2017-08-05T15:54:47.493Z,95647
2017-08-05T16:00:19.064Z,95640
2017-08-05T16:05:47.537Z,95641
2017-08-05T16:11:15.713Z,95635
2017-08-05T16:16:50.567Z,95637
2017-08-05T16:22:19.736Z,95642
2017-08-05T16:27:47.912Z,95647
2017-08-05T16:33:16.092Z,95651
2017-08-05T16:38:44.279Z,95654
2017-08-05T16:44:13.242Z,95660
2017-08-05T16:49:41.639Z,95661
2017-08-05T16:55:09.797Z,95657
2017-08-05T17:00:40.562Z,95658
2017-08-05T17:06:12.958Z,95653
2017-08-05T17:11:45.417Z,95662
2017-08-05T17:17:14.142Z,95658
2017-08-05T17:22:42.308Z,95664
2017-08-05T17:28:11.649Z,95665
2017-08-05T17:33:40.779Z,95671
2017-08-05T17:39:09.889Z,95669
2017-08-05T17:44:38.364Z,95669
2017-08-05T17:50:07.072Z,95682
2017-08-05T17:55:35.295Z,95694
2017-08-05T18:01:03.452Z,95698
2017-08-05T18:06:31.637Z,95676
2017-08-05T18:11:59.806Z,95668
2017-08-05T18:17:29.935Z,95662
2017-08-05T18:23:00.848Z,95674
2017-08-05T18:28:30.715Z,95685
2017-08-05T18:34:00.552Z,95678
2017-08-05T18:39:30.637Z,95671
2017-08-05T18:45:00.792Z,95669
2017-08-05T18:50:28.947Z,95666
2017-08-05T18:55:57.338Z,95679
2017-08-05T19:01:25.514Z,95682
2017-08-05T19:06:53.745Z,95703
2017-08-05T19:12:21.929Z,95710
2017-08-05T19:17:50.079Z,95714
2017-08-05T19:23:18.230Z,95702
2017-08-05T19:28:49.161Z,95688
2017-08-05T19:34:17.331Z,95693
2017-08-05T19:39:45.478Z,95714
2017-08-05T19:45:13.684Z,95747
2017-08-05T19:50:41.842Z,95775
2017-08-05T19:56:11.778Z,95783
2017-08-05T20:01:39.949Z,95816
2017-08-05T20:07:08.108Z,95814
2017-08-05T20:12:36.284Z,95802
2017-08-05T20:18:04.458Z,95808
2017-08-05T20:23:32.886Z,95828
2017-08-05T20:29:01.935Z,95851
2017-08-05T20:34:43.410Z,95853
2017-08-05T20:40:11.580Z,95838
2017-08-05T20:45:39.737Z,95860
2017-08-05T20:51:07.913Z,95878
2017-08-05T20:56:36.105Z,95880
2017-08-05T21:02:05.043Z,95894
2017-08-05T21:07:33.209Z,95894
2017-08-05T21:13:01.369Z,95913
2017-08-05T21:18:29.524Z,95910
2017-08-05T21:23:58.831Z,95917
2017-08-05T21:29:27.020Z,95923
2017-08-05T21:34:55.180Z,95933
2017-08-05T21:40:23.326Z,95938
2017-08-05T21:45:51.537Z,95941
2017-08-05T21:51:19.710Z,95941
2017-08-05T21:56:48.736Z,95938
2017-08-05T22:02:16.963Z,95956
2017-08-05T22:07:45.435Z,95959
2017-08-05T22:13:14.334Z,95955
2017-08-05T22:18:42.495Z,95949
2017-08-05T22:24:10.658Z,95932
2017-08-05T22:29:38.803Z,95956
2017-08-05T22:35:06.987Z,95955
2017-08-05T22:40:35.206Z,95964
2017-08-05T22:46:03.360Z,95971
2017-08-05T22:51:32.635Z,95970
2017-08-05T22:57:00.801Z,95972
2017-08-05T23:02:29.026Z,95967
2017-08-05T23:07:57.183Z,95975
2017-08-05T23:13:25.429Z,95985
2017-08-05T23:18:53.676Z,95976
2017-08-05T23:24:21.826Z,95980
2017-08-05T23:29:50.091Z,95982
2017-08-05T23:35:18.271Z,95992
2017-08-05T23:40:46.422Z,95989
2017-08-05T23:46:14.588Z,95986
2017-08-05T23:51:44.578Z,95995
2017-08-05T23:57:14.689Z,95986
